sensor_id;sensor_type;location;lat;lon;timestamp;P1;durP1;ratioP1;P2;durP2;ratioP2
27744;SDS011;61387;48.112;8.616;2023-08-17T00:01:49;10.27;;;8.17;;
27744;SDS011;61387;48.112;8.616;2023-08-17T00:04:15;12.13;;;8.10;;
27744;SDS011;61387;48.112;8.616;2023-08-17T00:06:41;24.97;;;7.47;;
27744;SDS011;61387;48.112;8.616;2023-08-17T00:09:07;32.80;;;8.70;;
27744;SDS011;61387;48.112;8.616;2023-08-17T00:11:34;15.40;;;8.83;;
27744;SDS011;61387;48.112;8.616;2023-08-17T00:13:59;10.10;;;7.60;;
27744;SDS011;61387;48.112;8.616;2023-08-17T00:16:25;11.27;;;7.20;;
27744;SDS011;61387;48.112;8.616;2023-08-17T00:18:51;11.73;;;6.70;;
27744;SDS011;61387;48.112;8.616;2023-08-17T00:21:17;9.05;;;6.45;;
27744;SDS011;61387;48.112;8.616;2023-08-17T00:23:43;10.43;;;6.47;;
27744;SDS011;61387;48.112;8.616;2023-08-17T00:26:08;9.03;;;6.50;;
27744;SDS011;61387;48.112;8.616;2023-08-17T00:28:34;13.53;;;7.17;;
27744;SDS011;61387;48.112;8.616;2023-08-17T00:31:00;18.92;;;8.07;;
27744;SDS011;61387;48.112;8.616;2023-08-17T00:33:26;15.27;;;7.83;;
27744;SDS011;61387;48.112;8.616;2023-08-17T00:35:52;12.07;;;8.27;;
27744;SDS011;61387;48.112;8.616;2023-08-17T00:38:18;12.93;;;8.20;;
27744;SDS011;61387;48.112;8.616;2023-08-17T00:40:44;15.03;;;9.00;;
27744;SDS011;61387;48.112;8.616;2023-08-17T00:43:10;16.07;;;9.00;;
27744;SDS011;61387;48.112;8.616;2023-08-17T00:45:36;25.23;;;10.67;;
27744;SDS011;61387;48.112;8.616;2023-08-17T00:48:02;30.20;;;10.50;;
27744;SDS011;61387;48.112;8.616;2023-08-17T00:50:30;42.67;;;11.30;;
27744;SDS011;61387;48.112;8.616;2023-08-17T00:52:56;26.90;;;9.00;;
27744;SDS011;61387;48.112;8.616;2023-08-17T00:55:22;26.30;;;9.33;;
27744;SDS011;61387;48.112;8.616;2023-08-17T00:57:48;38.37;;;10.70;;
27744;SDS011;61387;48.112;8.616;2023-08-17T01:00:14;31.27;;;8.47;;
27744;SDS011;61387;48.112;8.616;2023-08-17T01:02:41;35.00;;;11.00;;
27744;SDS011;61387;48.112;8.616;2023-08-17T01:05:07;27.83;;;9.03;;
27744;SDS011;61387;48.112;8.616;2023-08-17T01:07:33;27.87;;;8.37;;
27744;SDS011;61387;48.112;8.616;2023-08-17T01:09:59;35.60;;;9.90;;
27744;SDS011;61387;48.112;8.616;2023-08-17T01:17:42;11.97;;;7.90;;
27744;SDS011;61387;48.112;8.616;2023-08-17T01:20:12;13.83;;;8.70;;
27744;SDS011;61387;48.112;8.616;2023-08-17T01:22:43;13.60;;;8.03;;
27744;SDS011;61387;48.112;8.616;2023-08-17T01:25:10;10.30;;;7.70;;
27744;SDS011;61387;48.112;8.616;2023-08-17T01:27:40;11.03;;;8.57;;
27744;SDS011;61387;48.112;8.616;2023-08-17T01:30:07;11.07;;;8.33;;
27744;SDS011;61387;48.112;8.616;2023-08-17T01:35:04;11.57;;;7.63;;
27744;SDS011;61387;48.112;8.616;2023-08-17T01:37:55;10.97;;;7.20;;
27744;SDS011;61387;48.112;8.616;2023-08-17T01:40:26;11.83;;;7.50;;
27744;SDS011;61387;48.112;8.616;2023-08-17T01:42:53;14.90;;;7.77;;
27744;SDS011;61387;48.112;8.616;2023-08-17T01:45:19;9.87;;;7.73;;
27744;SDS011;61387;48.112;8.616;2023-08-17T01:47:45;23.27;;;8.73;;
27744;SDS011;61387;48.112;8.616;2023-08-17T01:50:11;12.17;;;8.87;;
27744;SDS011;61387;48.112;8.616;2023-08-17T01:52:37;15.40;;;8.70;;
27744;SDS011;61387;48.112;8.616;2023-08-17T01:55:03;11.13;;;8.20;;
27744;SDS011;61387;48.112;8.616;2023-08-17T01:57:29;11.47;;;8.23;;
27744;SDS011;61387;48.112;8.616;2023-08-17T01:59:55;11.73;;;7.37;;
27744;SDS011;61387;48.112;8.616;2023-08-17T02:02:20;15.20;;;8.73;;
27744;SDS011;61387;48.112;8.616;2023-08-17T02:04:47;10.87;;;8.10;;
27744;SDS011;61387;48.112;8.616;2023-08-17T02:07:13;12.10;;;8.57;;
27744;SDS011;61387;48.112;8.616;2023-08-17T02:09:39;13.20;;;9.23;;
27744;SDS011;61387;48.112;8.616;2023-08-17T02:12:05;37.13;;;11.13;;
27744;SDS011;61387;48.112;8.616;2023-08-17T02:14:30;29.57;;;9.73;;
27744;SDS011;61387;48.112;8.616;2023-08-17T02:16:56;62.17;;;10.80;;
27744;SDS011;61387;48.112;8.616;2023-08-17T02:19:22;41.10;;;10.03;;
27744;SDS011;61387;48.112;8.616;2023-08-17T02:21:48;23.03;;;9.90;;
27744;SDS011;61387;48.112;8.616;2023-08-17T02:24:14;16.73;;;9.37;;
27744;SDS011;61387;48.112;8.616;2023-08-17T02:26:40;23.30;;;9.93;;
27744;SDS011;61387;48.112;8.616;2023-08-17T02:29:06;19.30;;;9.97;;
27744;SDS011;61387;48.112;8.616;2023-08-17T02:31:31;12.37;;;9.53;;
27744;SDS011;61387;48.112;8.616;2023-08-17T02:33:57;12.37;;;8.80;;
27744;SDS011;61387;48.112;8.616;2023-08-17T02:36:28;9.80;;;8.43;;
27744;SDS011;61387;48.112;8.616;2023-08-17T02:38:54;11.80;;;8.53;;
27744;SDS011;61387;48.112;8.616;2023-08-17T02:41:23;14.83;;;8.80;;
27744;SDS011;61387;48.112;8.616;2023-08-17T02:43:49;13.37;;;8.43;;
27744;SDS011;61387;48.112;8.616;2023-08-17T02:46:14;10.47;;;8.63;;
27744;SDS011;61387;48.112;8.616;2023-08-17T02:48:46;10.07;;;7.37;;
27744;SDS011;61387;48.112;8.616;2023-08-17T02:51:12;9.80;;;7.70;;
27744;SDS011;61387;48.112;8.616;2023-08-17T02:53:38;12.10;;;7.50;;
27744;SDS011;61387;48.112;8.616;2023-08-17T02:56:04;10.93;;;7.50;;
27744;SDS011;61387;48.112;8.616;2023-08-17T02:58:30;9.03;;;7.13;;
27744;SDS011;61387;48.112;8.616;2023-08-17T03:00:56;10.17;;;6.47;;
27744;SDS011;61387;48.112;8.616;2023-08-17T03:03:21;7.23;;;6.23;;
27744;SDS011;61387;48.112;8.616;2023-08-17T03:05:47;8.00;;;6.43;;
27744;SDS011;61387;48.112;8.616;2023-08-17T03:08:13;8.37;;;6.30;;
27744;SDS011;61387;48.112;8.616;2023-08-17T03:10:38;11.00;;;6.20;;
27744;SDS011;61387;48.112;8.616;2023-08-17T03:13:04;7.87;;;6.60;;
27744;SDS011;61387;48.112;8.616;2023-08-17T03:15:30;9.37;;;7.07;;
27744;SDS011;61387;48.112;8.616;2023-08-17T03:17:56;9.17;;;7.40;;
27744;SDS011;61387;48.112;8.616;2023-08-17T03:20:21;10.35;;;7.65;;
27744;SDS011;61387;48.112;8.616;2023-08-17T03:22:47;10.80;;;7.57;;
27744;SDS011;61387;48.112;8.616;2023-08-17T03:25:13;10.20;;;7.10;;
27744;SDS011;61387;48.112;8.616;2023-08-17T03:27:39;9.23;;;6.60;;
27744;SDS011;61387;48.112;8.616;2023-08-17T03:30:05;12.50;;;7.40;;
27744;SDS011;61387;48.112;8.616;2023-08-17T03:32:31;9.60;;;6.73;;
27744;SDS011;61387;48.112;8.616;2023-08-17T03:34:57;7.77;;;6.30;;
27744;SDS011;61387;48.112;8.616;2023-08-17T03:37:22;7.70;;;6.40;;
27744;SDS011;61387;48.112;8.616;2023-08-17T03:39:48;8.23;;;6.80;;
27744;SDS011;61387;48.112;8.616;2023-08-17T03:42:14;7.70;;;6.57;;
27744;SDS011;61387;48.112;8.616;2023-08-17T03:44:39;10.47;;;7.43;;
27744;SDS011;61387;48.112;8.616;2023-08-17T03:47:05;9.00;;;6.87;;
27744;SDS011;61387;48.112;8.616;2023-08-17T03:49:31;10.23;;;6.90;;
27744;SDS011;61387;48.112;8.616;2023-08-17T03:51:57;8.70;;;7.43;;
27744;SDS011;61387;48.112;8.616;2023-08-17T03:54:23;9.87;;;7.53;;
27744;SDS011;61387;48.112;8.616;2023-08-17T03:56:49;15.07;;;7.80;;
27744;SDS011;61387;48.112;8.616;2023-08-17T03:59:15;11.57;;;7.87;;
27744;SDS011;61387;48.112;8.616;2023-08-17T04:01:41;24.57;;;9.50;;
27744;SDS011;61387;48.112;8.616;2023-08-17T04:04:08;16.43;;;8.23;;
27744;SDS011;61387;48.112;8.616;2023-08-17T04:06:34;15.97;;;8.37;;
27744;SDS011;61387;48.112;8.616;2023-08-17T04:09:01;11.13;;;7.60;;
27744;SDS011;61387;48.112;8.616;2023-08-17T04:11:27;11.80;;;7.20;;
27744;SDS011;61387;48.112;8.616;2023-08-17T04:13:53;9.10;;;6.80;;
27744;SDS011;61387;48.112;8.616;2023-08-17T04:16:19;9.97;;;6.67;;
27744;SDS011;61387;48.112;8.616;2023-08-17T04:18:45;8.57;;;7.00;;
27744;SDS011;61387;48.112;8.616;2023-08-17T04:21:10;9.43;;;6.80;;
27744;SDS011;61387;48.112;8.616;2023-08-17T04:23:36;7.67;;;5.90;;
27744;SDS011;61387;48.112;8.616;2023-08-17T04:26:02;10.80;;;6.17;;
27744;SDS011;61387;48.112;8.616;2023-08-17T04:28:28;11.93;;;6.67;;
27744;SDS011;61387;48.112;8.616;2023-08-17T04:30:53;7.73;;;6.07;;
27744;SDS011;61387;48.112;8.616;2023-08-17T04:33:19;10.53;;;6.10;;
27744;SDS011;61387;48.112;8.616;2023-08-17T04:35:48;7.27;;;6.13;;
27744;SDS011;61387;48.112;8.616;2023-08-17T04:38:13;7.80;;;6.30;;
27744;SDS011;61387;48.112;8.616;2023-08-17T04:40:39;9.17;;;6.67;;
27744;SDS011;61387;48.112;8.616;2023-08-17T04:43:06;7.87;;;6.40;;
27744;SDS011;61387;48.112;8.616;2023-08-17T04:45:32;11.10;;;6.80;;
27744;SDS011;61387;48.112;8.616;2023-08-17T04:47:57;9.70;;;6.27;;
27744;SDS011;61387;48.112;8.616;2023-08-17T04:50:23;11.03;;;6.10;;
27744;SDS011;61387;48.112;8.616;2023-08-17T04:52:49;10.50;;;6.60;;
27744;SDS011;61387;48.112;8.616;2023-08-17T04:55:15;12.53;;;7.47;;
27744;SDS011;61387;48.112;8.616;2023-08-17T04:57:41;25.20;;;8.30;;
27744;SDS011;61387;48.112;8.616;2023-08-17T05:00:07;21.03;;;9.40;;
27744;SDS011;61387;48.112;8.616;2023-08-17T05:02:36;17.10;;;9.00;;
27744;SDS011;61387;48.112;8.616;2023-08-17T05:05:03;54.77;;;11.03;;
27744;SDS011;61387;48.112;8.616;2023-08-17T05:07:32;16.07;;;9.43;;
27744;SDS011;61387;48.112;8.616;2023-08-17T05:09:58;20.47;;;9.23;;
27744;SDS011;61387;48.112;8.616;2023-08-17T05:12:24;14.57;;;8.50;;
27744;SDS011;61387;48.112;8.616;2023-08-17T05:14:50;19.13;;;8.67;;
27744;SDS011;61387;48.112;8.616;2023-08-17T05:17:16;14.73;;;8.43;;
27744;SDS011;61387;48.112;8.616;2023-08-17T05:19:42;51.83;;;37.37;;
27744;SDS011;61387;48.112;8.616;2023-08-17T05:22:09;25.03;;;9.17;;
27744;SDS011;61387;48.112;8.616;2023-08-17T05:24:36;28.53;;;9.23;;
27744;SDS011;61387;48.112;8.616;2023-08-17T05:27:02;16.40;;;7.50;;
27744;SDS011;61387;48.112;8.616;2023-08-17T05:29:28;14.07;;;8.20;;
27744;SDS011;61387;48.112;8.616;2023-08-17T05:31:54;12.80;;;7.63;;
27744;SDS011;61387;48.112;8.616;2023-08-17T05:34:20;13.30;;;7.63;;
27744;SDS011;61387;48.112;8.616;2023-08-17T05:36:45;13.70;;;7.97;;
27744;SDS011;61387;48.112;8.616;2023-08-17T05:39:11;14.23;;;7.97;;
27744;SDS011;61387;48.112;8.616;2023-08-17T05:41:37;13.37;;;8.10;;
27744;SDS011;61387;48.112;8.616;2023-08-17T05:44:03;14.17;;;7.73;;
27744;SDS011;61387;48.112;8.616;2023-08-17T05:46:29;16.87;;;7.60;;
27744;SDS011;61387;48.112;8.616;2023-08-17T05:48:55;19.00;;;7.77;;
27744;SDS011;61387;48.112;8.616;2023-08-17T05:51:21;15.73;;;8.10;;
27744;SDS011;61387;48.112;8.616;2023-08-17T05:53:46;25.93;;;9.10;;
27744;SDS011;61387;48.112;8.616;2023-08-17T05:56:12;20.43;;;9.03;;
27744;SDS011;61387;48.112;8.616;2023-08-17T05:58:38;34.77;;;9.17;;
27744;SDS011;61387;48.112;8.616;2023-08-17T06:01:07;23.43;;;9.80;;
27744;SDS011;61387;48.112;8.616;2023-08-17T06:03:34;23.57;;;8.67;;
27744;SDS011;61387;48.112;8.616;2023-08-17T06:06:01;17.30;;;8.43;;
27744;SDS011;61387;48.112;8.616;2023-08-17T06:08:26;16.33;;;7.20;;
27744;SDS011;61387;48.112;8.616;2023-08-17T06:10:52;18.07;;;7.33;;
27744;SDS011;61387;48.112;8.616;2023-08-17T06:13:18;13.67;;;7.57;;
27744;SDS011;61387;48.112;8.616;2023-08-17T06:15:44;10.97;;;8.47;;
27744;SDS011;61387;48.112;8.616;2023-08-17T06:18:09;9.93;;;7.70;;
27744;SDS011;61387;48.112;8.616;2023-08-17T06:20:35;10.33;;;8.10;;
27744;SDS011;61387;48.112;8.616;2023-08-17T06:23:01;12.47;;;8.07;;
27744;SDS011;61387;48.112;8.616;2023-08-17T06:25:27;11.87;;;8.60;;
27744;SDS011;61387;48.112;8.616;2023-08-17T06:27:53;15.30;;;9.40;;
27744;SDS011;61387;48.112;8.616;2023-08-17T06:30:18;9.37;;;7.27;;
27744;SDS011;61387;48.112;8.616;2023-08-17T06:32:44;10.57;;;7.73;;
27744;SDS011;61387;48.112;8.616;2023-08-17T06:35:10;9.63;;;7.93;;
27744;SDS011;61387;48.112;8.616;2023-08-17T06:37:35;10.33;;;8.07;;
27744;SDS011;61387;48.112;8.616;2023-08-17T06:40:02;8.80;;;7.10;;
27744;SDS011;61387;48.112;8.616;2023-08-17T06:42:31;10.77;;;7.75;;
27744;SDS011;61387;48.112;8.616;2023-08-17T06:44:56;8.53;;;6.87;;
27744;SDS011;61387;48.112;8.616;2023-08-17T06:47:22;9.17;;;7.67;;
27744;SDS011;61387;48.112;8.616;2023-08-17T06:49:48;8.88;;;6.53;;
27744;SDS011;61387;48.112;8.616;2023-08-17T06:52:14;8.03;;;6.80;;
27744;SDS011;61387;48.112;8.616;2023-08-17T06:54:40;8.77;;;7.17;;
27744;SDS011;61387;48.112;8.616;2023-08-17T06:57:06;9.27;;;7.43;;
27744;SDS011;61387;48.112;8.616;2023-08-17T06:59:31;9.63;;;7.73;;
27744;SDS011;61387;48.112;8.616;2023-08-17T07:01:58;9.47;;;7.20;;
27744;SDS011;61387;48.112;8.616;2023-08-17T07:04:24;8.77;;;7.17;;
27744;SDS011;61387;48.112;8.616;2023-08-17T07:06:50;8.07;;;7.00;;
27744;SDS011;61387;48.112;8.616;2023-08-17T07:09:16;9.05;;;6.60;;
27744;SDS011;61387;48.112;8.616;2023-08-17T07:11:41;9.03;;;7.17;;
27744;SDS011;61387;48.112;8.616;2023-08-17T07:14:07;9.47;;;7.00;;
27744;SDS011;61387;48.112;8.616;2023-08-17T07:16:33;8.70;;;7.40;;
27744;SDS011;61387;48.112;8.616;2023-08-17T07:18:59;9.90;;;7.00;;
27744;SDS011;61387;48.112;8.616;2023-08-17T07:21:25;10.17;;;8.13;;
27744;SDS011;61387;48.112;8.616;2023-08-17T07:23:54;9.60;;;7.60;;
27744;SDS011;61387;48.112;8.616;2023-08-17T07:26:20;10.30;;;7.97;;
27744;SDS011;61387;48.112;8.616;2023-08-17T07:28:46;10.23;;;8.05;;
27744;SDS011;61387;48.112;8.616;2023-08-17T07:31:12;9.67;;;7.97;;
27744;SDS011;61387;48.112;8.616;2023-08-17T07:33:38;8.90;;;7.60;;
27744;SDS011;61387;48.112;8.616;2023-08-17T07:36:04;10.70;;;8.23;;
27744;SDS011;61387;48.112;8.616;2023-08-17T07:38:29;10.73;;;8.63;;
27744;SDS011;61387;48.112;8.616;2023-08-17T07:40:55;9.73;;;8.10;;
27744;SDS011;61387;48.112;8.616;2023-08-17T07:43:21;10.90;;;8.88;;
27744;SDS011;61387;48.112;8.616;2023-08-17T07:45:54;11.63;;;9.00;;
27744;SDS011;61387;48.112;8.616;2023-08-17T07:48:20;10.68;;;8.70;;
27744;SDS011;61387;48.112;8.616;2023-08-17T07:50:50;10.03;;;8.60;;
27744;SDS011;61387;48.112;8.616;2023-08-17T07:53:17;12.13;;;9.57;;
27744;SDS011;61387;48.112;8.616;2023-08-17T07:55:42;11.70;;;9.38;;
27744;SDS011;61387;48.112;8.616;2023-08-17T07:58:08;9.87;;;7.77;;
27744;SDS011;61387;48.112;8.616;2023-08-17T08:00:34;11.13;;;8.77;;
27744;SDS011;61387;48.112;8.616;2023-08-17T08:02:59;9.57;;;8.57;;
27744;SDS011;61387;48.112;8.616;2023-08-17T08:05:25;10.67;;;9.37;;
27744;SDS011;61387;48.112;8.616;2023-08-17T08:07:51;11.73;;;9.03;;
27744;SDS011;61387;48.112;8.616;2023-08-17T08:10:17;13.33;;;9.63;;
27744;SDS011;61387;48.112;8.616;2023-08-17T08:12:42;11.97;;;8.73;;
27744;SDS011;61387;48.112;8.616;2023-08-17T08:15:08;10.70;;;9.07;;
27744;SDS011;61387;48.112;8.616;2023-08-17T08:17:34;11.27;;;10.00;;
27744;SDS011;61387;48.112;8.616;2023-08-17T08:20:00;11.53;;;9.27;;
27744;SDS011;61387;48.112;8.616;2023-08-17T08:22:26;10.38;;;8.93;;
27744;SDS011;61387;48.112;8.616;2023-08-17T08:24:52;11.20;;;8.95;;
27744;SDS011;61387;48.112;8.616;2023-08-17T08:27:17;12.18;;;8.90;;
27744;SDS011;61387;48.112;8.616;2023-08-17T08:29:43;9.10;;;7.93;;
27744;SDS011;61387;48.112;8.616;2023-08-17T08:32:08;9.77;;;8.50;;
27744;SDS011;61387;48.112;8.616;2023-08-17T08:34:34;9.32;;;8.25;;
27744;SDS011;61387;48.112;8.616;2023-08-17T08:37:00;10.80;;;8.32;;
27744;SDS011;61387;48.112;8.616;2023-08-17T08:39:26;10.43;;;7.77;;
27744;SDS011;61387;48.112;8.616;2023-08-17T08:41:52;10.13;;;7.13;;
27744;SDS011;61387;48.112;8.616;2023-08-17T08:44:18;9.93;;;7.63;;
27744;SDS011;61387;48.112;8.616;2023-08-17T08:46:44;11.60;;;7.60;;
27744;SDS011;61387;48.112;8.616;2023-08-17T08:49:11;9.98;;;7.20;;
27744;SDS011;61387;48.112;8.616;2023-08-17T08:51:38;8.70;;;6.65;;
27744;SDS011;61387;48.112;8.616;2023-08-17T08:54:08;9.63;;;6.90;;
27744;SDS011;61387;48.112;8.616;2023-08-17T08:56:38;11.93;;;7.40;;
27744;SDS011;61387;48.112;8.616;2023-08-17T08:59:07;8.85;;;7.03;;
27744;SDS011;61387;48.112;8.616;2023-08-17T09:01:35;9.02;;;6.43;;
27744;SDS011;61387;48.112;8.616;2023-08-17T09:04:01;9.90;;;6.97;;
27744;SDS011;61387;48.112;8.616;2023-08-17T09:06:28;8.60;;;7.00;;
27744;SDS011;61387;48.112;8.616;2023-08-17T09:08:55;12.15;;;8.40;;
27744;SDS011;61387;48.112;8.616;2023-08-17T09:11:22;10.80;;;7.65;;
27744;SDS011;61387;48.112;8.616;2023-08-17T09:13:47;13.07;;;8.25;;
27744;SDS011;61387;48.112;8.616;2023-08-17T09:16:13;9.63;;;7.75;;
27744;SDS011;61387;48.112;8.616;2023-08-17T09:18:38;9.35;;;7.43;;
27744;SDS011;61387;48.112;8.616;2023-08-17T09:21:04;7.87;;;6.97;;
27744;SDS011;61387;48.112;8.616;2023-08-17T09:23:30;9.47;;;6.80;;
27744;SDS011;61387;48.112;8.616;2023-08-17T09:25:56;9.67;;;7.00;;
27744;SDS011;61387;48.112;8.616;2023-08-17T09:28:25;11.02;;;7.32;;
27744;SDS011;61387;48.112;8.616;2023-08-17T09:30:55;11.17;;;7.27;;
27744;SDS011;61387;48.112;8.616;2023-08-17T09:33:31;10.35;;;7.47;;
27744;SDS011;61387;48.112;8.616;2023-08-17T09:35:58;11.25;;;8.05;;
27744;SDS011;61387;48.112;8.616;2023-08-17T09:38:25;13.23;;;7.03;;
27744;SDS011;61387;48.112;8.616;2023-08-17T09:40:51;10.32;;;7.30;;
27744;SDS011;61387;48.112;8.616;2023-08-17T09:43:18;8.85;;;7.05;;
27744;SDS011;61387;48.112;8.616;2023-08-17T09:45:45;8.90;;;6.90;;
27744;SDS011;61387;48.112;8.616;2023-08-17T09:48:14;11.73;;;7.05;;
27744;SDS011;61387;48.112;8.616;2023-08-17T09:50:47;9.40;;;6.87;;
27744;SDS011;61387;48.112;8.616;2023-08-17T09:53:19;9.45;;;6.62;;
27744;SDS011;61387;48.112;8.616;2023-08-17T09:55:45;10.02;;;6.82;;
27744;SDS011;61387;48.112;8.616;2023-08-17T09:58:11;9.18;;;6.97;;
27744;SDS011;61387;48.112;8.616;2023-08-17T10:00:44;8.80;;;7.65;;
27744;SDS011;61387;48.112;8.616;2023-08-17T10:03:17;8.68;;;6.57;;
27744;SDS011;61387;48.112;8.616;2023-08-17T10:05:45;8.85;;;7.50;;
27744;SDS011;61387;48.112;8.616;2023-08-17T10:08:17;9.65;;;6.82;;
27744;SDS011;61387;48.112;8.616;2023-08-17T10:10:45;8.63;;;6.22;;
27744;SDS011;61387;48.112;8.616;2023-08-17T10:13:12;11.07;;;6.80;;
27744;SDS011;61387;48.112;8.616;2023-08-17T10:16:29;9.38;;;6.35;;
27744;SDS011;61387;48.112;8.616;2023-08-17T10:18:45;9.35;;;6.82;;
27744;SDS011;61387;48.112;8.616;2023-08-17T10:21:46;10.13;;;6.78;;
27744;SDS011;61387;48.112;8.616;2023-08-17T10:24:17;7.93;;;6.72;;
27744;SDS011;61387;48.112;8.616;2023-08-17T10:26:44;9.60;;;6.85;;
27744;SDS011;61387;48.112;8.616;2023-08-17T10:29:10;13.07;;;7.05;;
27744;SDS011;61387;48.112;8.616;2023-08-17T10:31:37;9.17;;;6.33;;
27744;SDS011;61387;48.112;8.616;2023-08-17T10:34:03;8.13;;;6.45;;
27744;SDS011;61387;48.112;8.616;2023-08-17T10:36:30;9.02;;;5.87;;
27744;SDS011;61387;48.112;8.616;2023-08-17T10:39:17;8.07;;;5.93;;
27744;SDS011;61387;48.112;8.616;2023-08-17T10:41:50;7.80;;;6.22;;
27744;SDS011;61387;48.112;8.616;2023-08-17T10:47:19;7.22;;;5.90;;
27744;SDS011;61387;48.112;8.616;2023-08-17T10:49:51;7.83;;;6.27;;
27744;SDS011;61387;48.112;8.616;2023-08-17T10:52:37;8.45;;;6.20;;
27744;SDS011;61387;48.112;8.616;2023-08-17T10:55:07;8.47;;;6.03;;
27744;SDS011;61387;48.112;8.616;2023-08-17T10:57:41;6.93;;;5.78;;
27744;SDS011;61387;48.112;8.616;2023-08-17T11:00:15;10.20;;;6.30;;
27744;SDS011;61387;48.112;8.616;2023-08-17T11:02:57;9.18;;;6.50;;
27744;SDS011;61387;48.112;8.616;2023-08-17T11:05:44;7.45;;;5.82;;
27744;SDS011;61387;48.112;8.616;2023-08-17T11:08:34;8.50;;;5.80;;
27744;SDS011;61387;48.112;8.616;2023-08-17T11:11:10;8.27;;;6.07;;
27744;SDS011;61387;48.112;8.616;2023-08-17T11:13:40;8.63;;;5.82;;
27744;SDS011;61387;48.112;8.616;2023-08-17T11:16:07;8.40;;;5.80;;
27744;SDS011;61387;48.112;8.616;2023-08-17T11:18:34;10.00;;;6.18;;
27744;SDS011;61387;48.112;8.616;2023-08-17T11:21:01;11.15;;;6.82;;
27744;SDS011;61387;48.112;8.616;2023-08-17T11:23:31;8.63;;;6.32;;
27744;SDS011;61387;48.112;8.616;2023-08-17T11:25:58;8.45;;;5.55;;
27744;SDS011;61387;48.112;8.616;2023-08-17T11:28:24;6.82;;;4.35;;
27744;SDS011;61387;48.112;8.616;2023-08-17T11:31:00;9.25;;;4.75;;
27744;SDS011;61387;48.112;8.616;2023-08-17T11:33:27;8.95;;;4.03;;
27744;SDS011;61387;48.112;8.616;2023-08-17T11:35:54;6.93;;;4.55;;
27744;SDS011;61387;48.112;8.616;2023-08-17T11:38:20;8.73;;;4.40;;
27744;SDS011;61387;48.112;8.616;2023-08-17T11:40:46;8.63;;;5.40;;
27744;SDS011;61387;48.112;8.616;2023-08-17T11:43:13;9.05;;;4.47;;
27744;SDS011;61387;48.112;8.616;2023-08-17T11:45:39;7.75;;;4.03;;
27744;SDS011;61387;48.112;8.616;2023-08-17T11:48:05;6.78;;;4.50;;
27744;SDS011;61387;48.112;8.616;2023-08-17T11:50:30;8.20;;;4.90;;
27744;SDS011;61387;48.112;8.616;2023-08-17T11:52:59;9.93;;;5.18;;
27744;SDS011;61387;48.112;8.616;2023-08-17T11:55:25;8.55;;;4.85;;
27744;SDS011;61387;48.112;8.616;2023-08-17T11:57:51;7.93;;;5.13;;
27744;SDS011;61387;48.112;8.616;2023-08-17T12:00:18;10.02;;;5.70;;
27744;SDS011;61387;48.112;8.616;2023-08-17T12:02:48;7.12;;;5.50;;
27744;SDS011;61387;48.112;8.616;2023-08-17T12:05:24;7.82;;;5.37;;
27744;SDS011;61387;48.112;8.616;2023-08-17T12:07:55;8.30;;;5.53;;
27744;SDS011;61387;48.112;8.616;2023-08-17T12:10:21;10.80;;;6.28;;
27744;SDS011;61387;48.112;8.616;2023-08-17T12:12:49;9.82;;;5.95;;
27744;SDS011;61387;48.112;8.616;2023-08-17T12:15:16;11.05;;;5.62;;
27744;SDS011;61387;48.112;8.616;2023-08-17T12:17:48;9.73;;;5.12;;
27744;SDS011;61387;48.112;8.616;2023-08-17T12:20:19;9.52;;;5.60;;
27744;SDS011;61387;48.112;8.616;2023-08-17T12:22:45;8.65;;;5.65;;
27744;SDS011;61387;48.112;8.616;2023-08-17T12:25:11;8.52;;;5.53;;
27744;SDS011;61387;48.112;8.616;2023-08-17T12:27:37;7.70;;;5.17;;
27744;SDS011;61387;48.112;8.616;2023-08-17T12:30:04;8.68;;;5.12;;
27744;SDS011;61387;48.112;8.616;2023-08-17T12:32:36;8.02;;;4.80;;
27744;SDS011;61387;48.112;8.616;2023-08-17T12:35:02;6.93;;;4.40;;
27744;SDS011;61387;48.112;8.616;2023-08-17T12:37:28;8.90;;;4.80;;
27744;SDS011;61387;48.112;8.616;2023-08-17T12:40:00;9.48;;;4.75;;
27744;SDS011;61387;48.112;8.616;2023-08-17T12:42:26;8.98;;;5.03;;
27744;SDS011;61387;48.112;8.616;2023-08-17T12:44:51;7.43;;;4.87;;
27744;SDS011;61387;48.112;8.616;2023-08-17T12:47:17;7.80;;;4.80;;
27744;SDS011;61387;48.112;8.616;2023-08-17T12:49:43;6.53;;;4.57;;
27744;SDS011;61387;48.112;8.616;2023-08-17T12:52:09;7.87;;;4.97;;
27744;SDS011;61387;48.112;8.616;2023-08-17T12:54:35;9.90;;;4.50;;
27744;SDS011;61387;48.112;8.616;2023-08-17T12:57:01;10.30;;;5.50;;
27744;SDS011;61387;48.112;8.616;2023-08-17T12:59:27;8.10;;;5.05;;
27744;SDS011;61387;48.112;8.616;2023-08-17T13:01:53;7.00;;;4.50;;
27744;SDS011;61387;48.112;8.616;2023-08-17T13:04:19;7.47;;;4.63;;
27744;SDS011;61387;48.112;8.616;2023-08-17T13:06:45;6.70;;;5.20;;
27744;SDS011;61387;48.112;8.616;2023-08-17T13:09:12;7.78;;;5.10;;
27744;SDS011;61387;48.112;8.616;2023-08-17T13:11:39;9.23;;;5.12;;
27744;SDS011;61387;48.112;8.616;2023-08-17T13:14:05;8.93;;;5.10;;
27744;SDS011;61387;48.112;8.616;2023-08-17T13:16:31;8.83;;;4.80;;
27744;SDS011;61387;48.112;8.616;2023-08-17T13:18:57;8.87;;;5.07;;
27744;SDS011;61387;48.112;8.616;2023-08-17T13:21:22;7.77;;;5.17;;
27744;SDS011;61387;48.112;8.616;2023-08-17T13:23:48;8.07;;;5.20;;
27744;SDS011;61387;48.112;8.616;2023-08-17T13:26:13;7.00;;;5.00;;
27744;SDS011;61387;48.112;8.616;2023-08-17T13:28:39;6.27;;;4.73;;
27744;SDS011;61387;48.112;8.616;2023-08-17T13:31:05;7.50;;;5.00;;
27744;SDS011;61387;48.112;8.616;2023-08-17T13:33:31;7.60;;;5.20;;
27744;SDS011;61387;48.112;8.616;2023-08-17T13:35:57;7.97;;;5.13;;
27744;SDS011;61387;48.112;8.616;2023-08-17T13:38:23;6.40;;;4.70;;
27744;SDS011;61387;48.112;8.616;2023-08-17T13:40:49;5.65;;;4.35;;
27744;SDS011;61387;48.112;8.616;2023-08-17T13:43:15;9.30;;;4.77;;
27744;SDS011;61387;48.112;8.616;2023-08-17T13:45:41;7.37;;;5.03;;
27744;SDS011;61387;48.112;8.616;2023-08-17T13:48:07;7.97;;;4.30;;
27744;SDS011;61387;48.112;8.616;2023-08-17T13:50:36;8.93;;;4.70;;
27744;SDS011;61387;48.112;8.616;2023-08-17T13:53:02;7.28;;;4.62;;
27744;SDS011;61387;48.112;8.616;2023-08-17T13:55:28;6.37;;;4.87;;
27744;SDS011;61387;48.112;8.616;2023-08-17T13:57:55;5.93;;;4.43;;
27744;SDS011;61387;48.112;8.616;2023-08-17T14:00:21;7.87;;;4.43;;
27744;SDS011;61387;48.112;8.616;2023-08-17T14:02:47;6.90;;;4.37;;
27744;SDS011;61387;48.112;8.616;2023-08-17T14:05:13;6.47;;;4.93;;
27744;SDS011;61387;48.112;8.616;2023-08-17T14:07:39;7.37;;;4.87;;
27744;SDS011;61387;48.112;8.616;2023-08-17T14:10:05;6.73;;;3.83;;
27744;SDS011;61387;48.112;8.616;2023-08-17T14:12:31;6.85;;;4.50;;
27744;SDS011;61387;48.112;8.616;2023-08-17T14:14:57;6.53;;;4.30;;
27744;SDS011;61387;48.112;8.616;2023-08-17T14:17:23;7.50;;;4.37;;
27744;SDS011;61387;48.112;8.616;2023-08-17T14:19:49;9.43;;;4.50;;
27744;SDS011;61387;48.112;8.616;2023-08-17T14:22:15;7.50;;;4.17;;
27744;SDS011;61387;48.112;8.616;2023-08-17T14:24:41;7.00;;;4.70;;
27744;SDS011;61387;48.112;8.616;2023-08-17T14:27:07;8.20;;;4.67;;
27744;SDS011;61387;48.112;8.616;2023-08-17T14:29:32;5.70;;;3.97;;
27744;SDS011;61387;48.112;8.616;2023-08-17T14:31:58;5.50;;;4.30;;
27744;SDS011;61387;48.112;8.616;2023-08-17T14:34:23;7.33;;;4.50;;
27744;SDS011;61387;48.112;8.616;2023-08-17T14:36:49;8.57;;;4.67;;
27744;SDS011;61387;48.112;8.616;2023-08-17T14:39:15;7.37;;;4.07;;
27744;SDS011;61387;48.112;8.616;2023-08-17T14:41:41;10.37;;;4.33;;
27744;SDS011;61387;48.112;8.616;2023-08-17T14:44:08;7.47;;;4.17;;
27744;SDS011;61387;48.112;8.616;2023-08-17T14:46:33;6.95;;;4.18;;
27744;SDS011;61387;48.112;8.616;2023-08-17T14:49:00;7.28;;;4.03;;
27744;SDS011;61387;48.112;8.616;2023-08-17T14:51:25;9.03;;;4.87;;